KP69

Lowell Airport

Idaho, USA
METAR KP69 190652Z AUTO 00000KT 01/01 A2986 RMK AO1 SLP130 P0005 T00110011
Observed Flight Rules
Jan-19 @ 06:52 UTC (27 minutes ago)
Wind
Calm
Temperatures Readings Precipitation
Current 1°C / 34°F
Dewpoint 1°C / 34°F
Humidity 100%
Altimeter 29.86" Hg
Pressure 1013 hPa
Elevation 480
Current Rain 0.05
METAR KP69 190652Z AUTO 00000KT 01/01 A2986 RMK AO1 SLP130 P0005 T00110011
Observed Flight Rules
Jan-19 @ 06:52 UTC
(27 minutes ago)
Wind
Calm
Temperature Dewpoint
1°C / 34°F 1°C / 34°F
Humidity Altimeter Pressure
100% 29.86" Hg 1013 hPa
Current Rain
0.05